الصفحة الرئيسية
METAR-TAF:

METAR-TAF

مطار :

Greenwood, نوفا سكوشا, كندا

دائرة عرض: 44-59N, خط طول: 064-55W, ارتفاع: 28 متر

METAR: مفقودة

زمن: 03:26 (06:26 UTC)

توقعات

تاريخ ووقت الإصدار 18ساعات و 46 دقيقة قبل الساعة 11:40UTC
التوقعات صالحة من16 الساعة 12 UTC إلى 17 الساعة 12 UTC
ريح 3 عقدةمن اتجاهات متغيرة
الرؤية: 10 كم
غيوم متفرقة على ارتفاع 5000 قدم
غيوم مفككة على ارتفاع 7000 قدم
أصبح
من 16 الساعة 12 UTC إلى 16 الساعة 14 UTC
ريح 8 عقدة من الغرب/الشمال الغربي
غيوم قليلة على ارتفاع 7000 قدم
من 16 الساعة 1700 UTC
ريح 12 عقدة من الغرب
الرؤية: 10 كم
غيوم قليلة على ارتفاع 4000 قدم
من 16 الساعة 2300 UTC
ريح 6 عقدة من الغرب/الشمال الغربي
الرؤية: 10 كم
غيوم مفككة على ارتفاع 4000 قدم
من 17 الساعة 0300 UTC
ريح 8 عقدة من الشمال الغربي
الرؤية: 10 كم
غيوم قليلة على ارتفاع 4000 قدم

TAF: CYZX 161140Z 1612/1712 VRB03KT P6SM SCT050 BKN070 BECMG 1612/1614 29008KT FEW070 FM161700 28012KT P6SM FEW040 FM162300 30006KT P6SM BKN040 FM170300 31008KT P6SM FEW040 RMK NXT FCST BY 161800Z

أرصاد الطقس والتوقعات من أكثر من 4000 مطار (تقارير الطقس للمطار METAR والتنبؤ بالطقس بالمطارTAF).

المحطات المتاحة هي النقط الصفراء والحمراء على الخريطة.

حرك المؤشر فوق النقطة لمعرفة اسم المحطة.

ثم انقر لمعرفة أرصاد وتوقعات الطقس.

لتغيير الخارطة: اضغط على الأزرار الخضراء مع رمز الصليب الأسود للتكبير. على الزر الأخضر مع شرطة للتصغير، أو على الأسهم الخضراء للخرائط المجاورة.


METAR-TAF: